Time;durP1;ratioP1;P1;durP2;ratioP2;P2;SDS_P1;SDS_P2;PMS_P1;PMS_P2;Temp;Humidity;BMP_temperature;BMP_pressure;BME280_temperature;BME280_humidity;BME280_pressure;Samples;Min_cycle;Max_cycle;Signal;HPM_P1;HPM_P2
2022/03/01 01:26:36;;;;;;;19.10;8.95;;;4.60;99.90;;;;;;6036264;23;20034;-89
2022/03/01 05:21:58;;;;;;;14.13;7.80;;;4.30;99.90;;;;;;6126884;23;20398;-90
2022/03/01 05:24:27;;;;;;;20.80;9.82;;;4.30;99.90;;;;;;6101067;23;20033;-90
2022/03/01 05:26:54;;;;;;;16.73;9.30;;;4.30;99.90;;;;;;6125531;23;20053;-89
2022/03/01 05:29:21;;;;;;;19.65;10.93;;;4.30;99.90;;;;;;6099798;23;20028;-90
2022/03/01 05:31:48;;;;;;;17.73;9.05;;;4.30;99.90;;;;;;6101167;23;20029;-89
2022/03/01 05:34:17;;;;;;;14.55;8.60;;;4.30;99.90;;;;;;6124828;23;20014;-89
2022/03/01 05:36:47;;;;;;;15.70;8.80;;;4.40;99.90;;;;;;6126044;23;20457;-88
2022/03/01 05:39:14;;;;;;;17.55;9.10;;;4.40;99.90;;;;;;6126200;23;20014;-88
2022/03/01 05:41:42;;;;;;;15.05;8.35;;;4.40;99.90;;;;;;6100833;23;20022;-88
2022/03/01 05:44:09;;;;;;;18.30;9.13;;;4.40;99.90;;;;;;6126901;23;20350;-89
2022/03/01 05:46:36;;;;;;;16.27;8.48;;;4.40;99.90;;;;;;6100551;23;20052;-88
2022/03/01 05:49:27;;;;;;;18.33;8.15;;;4.40;99.90;;;;;;6125814;23;20014;-89
2022/03/01 05:56:09;;;;;;;13.90;7.43;;;4.40;99.90;;;;;;6126118;23;20456;-89
2022/03/01 06:17:59;;;;;;;17.73;8.43;;;4.50;99.90;;;;;;6008957;23;20204;-90
2022/03/01 06:25:18;;;;;;;22.27;10.45;;;4.40;99.90;;;;;;6006795;23;20015;-89
2022/03/01 06:28:19;;;;;;;22.00;11.32;;;4.40;99.90;;;;;;6008454;23;20020;-89
2022/03/01 06:30:59;;;;;;;15.52;9.35;;;4.40;99.90;;;;;;5962986;23;20024;-89
2022/03/01 06:37:42;;;;;;;17.50;8.95;;;4.40;99.90;;;;;;6008137;23;20020;-88
2022/03/01 06:40:18;;;;;;;15.63;8.07;;;4.40;99.90;;;;;;5961897;23;20096;-88
2022/03/01 06:43:18;;;;;;;16.23;8.75;;;4.40;99.90;;;;;;5985869;23;20118;-89
2022/03/01 06:53:30;;;;;;;17.88;9.63;;;4.50;99.90;;;;;;6082595;23;20105;-88
2022/03/01 06:56:04;;;;;;;14.02;8.00;;;4.50;99.90;;;;;;6103425;23;20025;-89
2022/03/01 06:58:40;;;;;;;15.98;8.63;;;4.50;99.90;;;;;;6102231;23;20022;-89
2022/03/01 07:05:13;;;;;;;15.75;8.23;;;4.40;99.90;;;;;;6125422;23;20018;-88
2022/03/01 07:07:44;;;;;;;18.55;8.90;;;4.50;99.90;;;;;;6125220;23;20365;-89
2022/03/01 07:10:23;;;;;;;16.70;8.63;;;4.50;99.90;;;;;;6101540;23;20020;-89
2022/03/01 07:13:04;;;;;;;14.85;8.23;;;4.50;99.90;;;;;;6097436;23;20395;-89
2022/03/01 07:15:39;;;;;;;17.83;9.13;;;4.50;99.90;;;;;;6097345;23;20017;-89
2022/03/01 07:18:27;;;;;;;18.88;9.35;;;4.50;99.90;;;;;;6093308;23;20042;-89
2022/03/01 07:20:59;;;;;;;17.60;8.97;;;4.50;99.90;;;;;;6071794;23;20042;-89
2022/03/01 07:23:29;;;;;;;15.82;8.85;;;4.50;99.90;;;;;;6097221;23;20287;-89
2022/03/01 07:26:04;;;;;;;19.23;8.80;;;4.50;99.90;;;;;;6099580;23;20022;-89
2022/03/01 07:28:36;;;;;;;17.35;8.52;;;4.50;99.90;;;;;;6101852;23;20014;-88
2022/03/01 07:31:05;;;;;;;15.00;7.60;;;4.50;99.90;;;;;;6101216;23;20079;-89
2022/03/01 07:33:34;;;;;;;16.15;9.23;;;4.50;99.90;;;;;;6127781;23;20073;-89
2022/03/01 07:36:03;;;;;;;21.00;9.07;;;4.50;99.90;;;;;;6101167;23;20053;-89
2022/03/01 07:38:34;;;;;;;13.88;8.15;;;4.50;99.90;;;;;;6100753;23;20032;-90
2022/03/01 07:41:04;;;;;;;16.05;7.70;;;4.60;99.90;;;;;;6101156;23;20415;-89
2022/03/01 07:43:43;;;;;;;17.50;8.90;;;4.60;99.90;;;;;;6102229;23;20454;-90
2022/03/01 07:46:34;;;;;;;14.93;8.07;;;4.50;99.90;;;;;;6080630;23;20025;-89
2022/03/01 07:49:47;;;;;;;16.27;9.07;;;4.50;99.90;;;;;;6077175;23;20022;-89
2022/03/01 07:52:32;;;;;;;15.27;8.70;;;4.50;99.90;;;;;;6127076;23;20025;-88
2022/03/01 07:54:59;;;;;;;15.70;9.20;;;4.60;99.90;;;;;;6101101;23;20022;-89
2022/03/01 07:57:28;;;;;;;17.55;8.45;;;4.50;99.90;;;;;;6100130;23;20387;-89
2022/03/01 07:59:55;;;;;;;16.05;8.10;;;4.60;99.90;;;;;;6125637;23;20024;-88
2022/03/01 08:02:26;;;;;;;16.33;8.63;;;4.60;99.90;;;;;;6126869;23;20079;-90
2022/03/01 08:04:53;;;;;;;16.67;10.10;;;4.60;99.90;;;;;;6124876;23;20042;-91
2022/03/01 08:07:41;;;;;;;17.63;9.63;;;4.60;99.90;;;;;;6121968;23;20033;-89
2022/03/01 08:10:13;;;;;;;17.57;8.70;;;4.60;99.90;;;;;;6102705;23;20024;-91
2022/03/01 08:12:44;;;;;;;18.17;9.65;;;4.60;99.90;;;;;;6125393;23;20320;-90
2022/03/01 08:15:31;;;;;;;19.70;8.02;;;4.60;99.90;;;;;;6127286;23;20017;-90
2022/03/01 08:18:05;;;;;;;17.92;8.95;;;4.60;99.90;;;;;;6100366;23;20022;-91
2022/03/01 08:20:32;;;;;;;16.42;10.32;;;4.60;99.90;;;;;;6077486;23;20037;-89
2022/03/01 08:23:02;;;;;;;15.88;9.38;;;4.60;99.90;;;;;;6125753;23;20013;-91
2022/03/01 08:25:29;;;;;;;13.50;7.93;;;4.60;99.90;;;;;;6101243;23;20022;-91
2022/03/01 08:27:57;;;;;;;14.48;8.73;;;4.60;99.90;;;;;;6077006;23;20350;-89
2022/03/01 08:30:26;;;;;;;16.05;9.05;;;4.60;99.90;;;;;;6077086;23;20022;-89
2022/03/01 08:32:54;;;;;;;17.90;9.25;;;4.70;99.90;;;;;;6100977;23;20018;-91
2022/03/01 08:35:22;;;;;;;20.50;10.60;;;4.70;99.90;;;;;;6125069;23;20513;-90
2022/03/01 08:37:51;;;;;;;19.17;10.15;;;4.70;99.90;;;;;;6124720;23;20022;-90
2022/03/01 08:40:19;;;;;;;26.27;11.60;;;4.70;99.90;;;;;;6124872;23;20509;-89
2022/03/01 08:42:46;;;;;;;19.17;11.15;;;4.70;99.90;;;;;;6101009;23;20010;-89
2022/03/01 08:45:13;;;;;;;18.05;9.35;;;4.70;99.90;;;;;;6100709;23;20025;-90
2022/03/01 08:47:41;;;;;;;18.17;9.18;;;4.70;99.90;;;;;;6100518;23;20017;-91
2022/03/01 08:50:09;;;;;;;18.83;11.05;;;4.70;99.90;;;;;;6100739;23;20010;-90
2022/03/01 08:52:56;;;;;;;16.27;9.00;;;4.70;99.90;;;;;;6100678;23;20093;-91
2022/03/01 08:55:24;;;;;;;17.00;8.70;;;4.70;99.90;;;;;;6100995;23;20021;-90
2022/03/01 08:57:51;;;;;;;22.27;10.65;;;4.80;99.90;;;;;;6101766;23;20382;-88
2022/03/01 09:00:21;;;;;;;16.65;9.23;;;4.70;99.90;;;;;;6125219;23;20018;-89
2022/03/01 09:02:48;;;;;;;16.35;8.55;;;4.80;99.90;;;;;;6100456;23;20473;-89
2022/03/01 09:05:32;;;;;;;17.13;9.52;;;4.80;99.90;;;;;;6100732;23;20415;-89
2022/03/01 09:08:31;;;;;;;15.02;8.02;;;4.80;99.90;;;;;;6075668;23;20024;-89
2022/03/01 09:11:48;;;;;;;14.82;8.40;;;4.80;99.90;;;;;;6105533;23;20097;-90
2022/03/01 09:21:33;;;;;;;15.30;8.48;;;4.80;99.90;;;;;;6006510;23;20057;-91
2022/03/01 09:30:40;;;;;;;14.70;8.25;;;4.90;99.90;;;;;;5940148;23;20102;-89
2022/03/01 09:33:42;;;;;;;17.63;9.15;;;4.90;99.90;;;;;;5962567;23;20024;-89
2022/03/01 09:37:04;;;;;;;14.05;9.95;;;4.90;99.90;;;;;;5928268;24;20053;-89
2022/03/01 09:40:33;;;;;;;20.38;10.10;;;4.90;99.90;;;;;;5927305;24;20029;-89
2022/03/01 09:43:56;;;;;;;17.85;9.18;;;4.90;99.90;;;;;;5999225;23;20024;-90
2022/03/01 09:51:34;;;;;;;23.55;11.82;;;4.90;99.90;;;;;;5867033;24;20033;-88
2022/03/01 10:16:34;;;;;;;16.75;9.18;;;4.90;99.90;;;;;;5764846;24;20054;-89
2022/03/01 10:24:16;;;;;;;20.88;11.30;;;5.00;99.90;;;;;;5878031;24;20026;-90
2022/03/01 10:28:10;;;;;;;20.83;10.77;;;5.00;99.90;;;;;;5898234;24;20413;-91
2022/03/01 14:47:25;;;;;;;29.33;15.23;;;6.30;99.90;;;;;;6157325;23;20096;-90
2022/03/01 14:50:35;;;;;;;27.77;15.00;;;6.20;99.90;;;;;;6095921;23;20489;-90
2022/03/01 14:53:04;;;;;;;32.72;17.50;;;6.20;99.90;;;;;;6072634;23;20022;-90
2022/03/01 14:55:42;;;;;;;27.52;15.05;;;6.10;99.90;;;;;;6073653;23;20019;-90
2022/03/01 14:58:36;;;;;;;31.65;16.70;;;6.20;99.90;;;;;;6048283;23;20018;-91
2022/03/01 15:01:29;;;;;;;27.85;14.75;;;6.10;99.90;;;;;;6092371;23;20025;-88
2022/03/01 15:04:00;;;;;;;32.50;17.67;;;6.20;99.90;;;;;;6098899;23;20097;-89
2022/03/01 15:06:27;;;;;;;27.25;15.02;;;6.20;99.90;;;;;;6130645;23;20044;-88
2022/03/01 15:08:55;;;;;;;28.00;15.57;;;6.20;99.90;;;;;;6155784;23;20021;-88
2022/03/01 15:11:24;;;;;;;21.98;13.20;;;6.20;99.90;;;;;;6132331;23;20341;-89
2022/03/01 15:13:53;;;;;;;26.55;15.68;;;6.20;99.90;;;;;;6106820;23;20522;-89
2022/03/01 15:16:22;;;;;;;25.60;13.48;;;6.20;99.90;;;;;;6131252;23;20017;-88
2022/03/01 15:18:53;;;;;;;31.35;17.80;;;6.30;99.90;;;;;;6132513;23;20025;-89
2022/03/01 15:21:29;;;;;;;35.00;17.02;;;6.30;99.90;;;;;;6157664;23;20025;-89
2022/03/01 21:09:47;;;;;;;46.30;21.90;;;5.60;99.90;;;;;;6156496;23;20084;-88
